sensor_id;sensor_type;location;lat;lon;timestamp;P1;durP1;ratioP1;P2;durP2;ratioP2
11685;SDS011;5899;51.282;6.094;2024-02-26T00:00:04;3.00;;;1.60;;
11685;SDS011;5899;51.282;6.094;2024-02-26T00:02:36;1.60;;;1.50;;
11685;SDS011;5899;51.282;6.094;2024-02-26T00:05:11;1.85;;;1.65;;
11685;SDS011;5899;51.282;6.094;2024-02-26T00:08:04;2.90;;;1.70;;
11685;SDS011;5899;51.282;6.094;2024-02-26T00:10:31;2.80;;;1.70;;
11685;SDS011;5899;51.282;6.094;2024-02-26T00:12:59;2.70;;;1.67;;
11685;SDS011;5899;51.282;6.094;2024-02-26T00:15:26;1.98;;;1.80;;
11685;SDS011;5899;51.282;6.094;2024-02-26T00:17:53;2.00;;;1.80;;
11685;SDS011;5899;51.282;6.094;2024-02-26T00:20:21;2.25;;;2.00;;
11685;SDS011;5899;51.282;6.094;2024-02-26T00:22:47;3.03;;;1.87;;
11685;SDS011;5899;51.282;6.094;2024-02-26T00:25:17;2.17;;;1.90;;
11685;SDS011;5899;51.282;6.094;2024-02-26T00:27:43;1.77;;;1.60;;
11685;SDS011;5899;51.282;6.094;2024-02-26T00:30:10;1.97;;;1.70;;
11685;SDS011;5899;51.282;6.094;2024-02-26T00:32:37;1.88;;;1.70;;
11685;SDS011;5899;51.282;6.094;2024-02-26T00:35:05;2.50;;;1.60;;
11685;SDS011;5899;51.282;6.094;2024-02-26T00:40:29;2.53;;;1.70;;
11685;SDS011;5899;51.282;6.094;2024-02-26T00:42:59;2.40;;;2.20;;
11685;SDS011;5899;51.282;6.094;2024-02-26T00:45:25;1.60;;;1.50;;
11685;SDS011;5899;51.282;6.094;2024-02-26T00:47:57;1.83;;;1.60;;
11685;SDS011;5899;51.282;6.094;2024-02-26T00:50:23;2.00;;;1.85;;
11685;SDS011;5899;51.282;6.094;2024-02-26T00:52:50;2.28;;;1.65;;
11685;SDS011;5899;51.282;6.094;2024-02-26T00:55:18;2.40;;;2.03;;
11685;SDS011;5899;51.282;6.094;2024-02-26T00:57:46;2.40;;;1.90;;
11685;SDS011;5899;51.282;6.094;2024-02-26T01:00:16;2.90;;;1.88;;
11685;SDS011;5899;51.282;6.094;2024-02-26T01:02:42;2.20;;;2.00;;
11685;SDS011;5899;51.282;6.094;2024-02-26T01:05:13;2.20;;;2.00;;
11685;SDS011;5899;51.282;6.094;2024-02-26T01:07:41;3.75;;;2.30;;
11685;SDS011;5899;51.282;6.094;2024-02-26T01:10:08;2.30;;;2.10;;
11685;SDS011;5899;51.282;6.094;2024-02-26T01:12:37;2.08;;;1.88;;
11685;SDS011;5899;51.282;6.094;2024-02-26T01:15:17;3.78;;;2.40;;
11685;SDS011;5899;51.282;6.094;2024-02-26T01:17:47;2.25;;;2.05;;
11685;SDS011;5899;51.282;6.094;2024-02-26T01:20:16;4.00;;;2.15;;
11685;SDS011;5899;51.282;6.094;2024-02-26T01:22:43;2.78;;;2.10;;
11685;SDS011;5899;51.282;6.094;2024-02-26T01:27:53;2.37;;;2.17;;
11685;SDS011;5899;51.282;6.094;2024-02-26T01:30:23;2.90;;;2.10;;
11685;SDS011;5899;51.282;6.094;2024-02-26T01:33:00;2.63;;;2.17;;
11685;SDS011;5899;51.282;6.094;2024-02-26T01:35:33;2.28;;;2.08;;
11685;SDS011;5899;51.282;6.094;2024-02-26T01:38:01;2.25;;;2.08;;
11685;SDS011;5899;51.282;6.094;2024-02-26T01:40:33;2.33;;;2.10;;
11685;SDS011;5899;51.282;6.094;2024-02-26T01:43:01;3.75;;;2.40;;
11685;SDS011;5899;51.282;6.094;2024-02-26T01:45:30;3.55;;;2.38;;
11685;SDS011;5899;51.282;6.094;2024-02-26T01:48:07;4.10;;;2.50;;
11685;SDS011;5899;51.282;6.094;2024-02-26T01:50:37;4.23;;;2.60;;
11685;SDS011;5899;51.282;6.094;2024-02-26T01:53:08;2.53;;;2.15;;
11685;SDS011;5899;51.282;6.094;2024-02-26T01:55:41;2.30;;;2.10;;
11685;SDS011;5899;51.282;6.094;2024-02-26T01:58:18;3.92;;;2.30;;
11685;SDS011;5899;51.282;6.094;2024-02-26T02:00:50;3.45;;;2.70;;
11685;SDS011;5899;51.282;6.094;2024-02-26T02:03:28;2.58;;;2.38;;
11685;SDS011;5899;51.282;6.094;2024-02-26T02:05:57;2.55;;;2.22;;
11685;SDS011;5899;51.282;6.094;2024-02-26T02:08:24;3.35;;;2.58;;
11685;SDS011;5899;51.282;6.094;2024-02-26T02:11:03;3.00;;;2.40;;
11685;SDS011;5899;51.282;6.094;2024-02-26T02:13:32;4.05;;;2.40;;
11685;SDS011;5899;51.282;6.094;2024-02-26T02:16:09;3.65;;;2.63;;
11685;SDS011;5899;51.282;6.094;2024-02-26T02:18:36;3.17;;;2.05;;
11685;SDS011;5899;51.282;6.094;2024-02-26T02:23:50;3.42;;;2.40;;
11685;SDS011;5899;51.282;6.094;2024-02-26T02:26:28;3.72;;;2.55;;
11685;SDS011;5899;51.282;6.094;2024-02-26T02:28:59;3.20;;;2.73;;
11685;SDS011;5899;51.282;6.094;2024-02-26T02:31:32;3.22;;;2.50;;
11685;SDS011;5899;51.282;6.094;2024-02-26T02:34:02;3.20;;;2.30;;
11685;SDS011;5899;51.282;6.094;2024-02-26T02:36:47;2.70;;;2.20;;
11685;SDS011;5899;51.282;6.094;2024-02-26T02:39:31;3.87;;;2.53;;
11685;SDS011;5899;51.282;6.094;2024-02-26T02:42:09;3.78;;;2.30;;
11685;SDS011;5899;51.282;6.094;2024-02-26T02:44:37;3.15;;;2.47;;
11685;SDS011;5899;51.282;6.094;2024-02-26T02:47:18;3.97;;;2.55;;
11685;SDS011;5899;51.282;6.094;2024-02-26T02:49:51;3.08;;;2.40;;
11685;SDS011;5899;51.282;6.094;2024-02-26T02:52:18;2.53;;;2.10;;
11685;SDS011;5899;51.282;6.094;2024-02-26T02:54:52;2.33;;;2.03;;
11685;SDS011;5899;51.282;6.094;2024-02-26T02:57:23;2.38;;;2.17;;
11685;SDS011;5899;51.282;6.094;2024-02-26T02:59:50;2.70;;;2.10;;
11685;SDS011;5899;51.282;6.094;2024-02-26T03:02:20;2.60;;;2.00;;
11685;SDS011;5899;51.282;6.094;2024-02-26T03:04:47;2.53;;;2.30;;
11685;SDS011;5899;51.282;6.094;2024-02-26T03:07:18;2.03;;;1.83;;
11685;SDS011;5899;51.282;6.094;2024-02-26T03:09:54;2.40;;;2.20;;
11685;SDS011;5899;51.282;6.094;2024-02-26T03:12:22;2.88;;;1.92;;
11685;SDS011;5899;51.282;6.094;2024-02-26T03:14:53;2.05;;;1.85;;
11685;SDS011;5899;51.282;6.094;2024-02-26T03:17:19;2.08;;;1.83;;
11685;SDS011;5899;51.282;6.094;2024-02-26T03:20:13;3.43;;;1.90;;
11685;SDS011;5899;51.282;6.094;2024-02-26T03:22:43;2.85;;;2.05;;
11685;SDS011;5899;51.282;6.094;2024-02-26T03:28:03;2.40;;;2.10;;
11685;SDS011;5899;51.282;6.094;2024-02-26T03:30:37;2.42;;;1.95;;
11685;SDS011;5899;51.282;6.094;2024-02-26T03:33:14;3.33;;;1.97;;
11685;SDS011;5899;51.282;6.094;2024-02-26T03:35:42;3.60;;;2.10;;
11685;SDS011;5899;51.282;6.094;2024-02-26T03:38:14;3.00;;;2.00;;
11685;SDS011;5899;51.282;6.094;2024-02-26T03:40:54;3.78;;;2.10;;
11685;SDS011;5899;51.282;6.094;2024-02-26T03:43:29;2.90;;;1.90;;
11685;SDS011;5899;51.282;6.094;2024-02-26T03:46:08;3.50;;;2.50;;
11685;SDS011;5899;51.282;6.094;2024-02-26T03:48:46;2.05;;;1.85;;
11685;SDS011;5899;51.282;6.094;2024-02-26T03:51:15;4.78;;;2.17;;
11685;SDS011;5899;51.282;6.094;2024-02-26T03:53:45;2.50;;;2.10;;
11685;SDS011;5899;51.282;6.094;2024-02-26T03:56:15;2.45;;;2.15;;
11685;SDS011;5899;51.282;6.094;2024-02-26T03:58:50;2.42;;;2.20;;
11685;SDS011;5899;51.282;6.094;2024-02-26T04:02:27;3.45;;;2.22;;
11685;SDS011;5899;51.282;6.094;2024-02-26T04:04:33;2.28;;;2.05;;
11685;SDS011;5899;51.282;6.094;2024-02-26T04:07:03;3.30;;;2.43;;
11685;SDS011;5899;51.282;6.094;2024-02-26T04:09:35;2.55;;;2.10;;
11685;SDS011;5899;51.282;6.094;2024-02-26T04:12:10;3.03;;;2.03;;
11685;SDS011;5899;51.282;6.094;2024-02-26T04:14:50;2.67;;;2.47;;
11685;SDS011;5899;51.282;6.094;2024-02-26T04:17:22;2.50;;;2.30;;
11685;SDS011;5899;51.282;6.094;2024-02-26T04:19:53;3.70;;;2.20;;
11685;SDS011;5899;51.282;6.094;2024-02-26T04:22:21;2.92;;;2.47;;
11685;SDS011;5899;51.282;6.094;2024-02-26T04:25:08;3.22;;;2.60;;
11685;SDS011;5899;51.282;6.094;2024-02-26T04:28:02;2.77;;;2.43;;
11685;SDS011;5899;51.282;6.094;2024-02-26T04:30:41;2.40;;;2.20;;
11685;SDS011;5899;51.282;6.094;2024-02-26T04:33:27;3.25;;;2.40;;
11685;SDS011;5899;51.282;6.094;2024-02-26T04:36:02;2.90;;;2.50;;
11685;SDS011;5899;51.282;6.094;2024-02-26T04:38:41;3.17;;;2.83;;
11685;SDS011;5899;51.282;6.094;2024-02-26T04:41:15;3.40;;;2.70;;
11685;SDS011;5899;51.282;6.094;2024-02-26T04:43:52;4.20;;;2.90;;
11685;SDS011;5899;51.282;6.094;2024-02-26T04:51:48;6.68;;;3.50;;
11685;SDS011;5899;51.282;6.094;2024-02-26T04:54:27;3.55;;;2.90;;
11685;SDS011;5899;51.282;6.094;2024-02-26T04:59:52;3.53;;;3.00;;
11685;SDS011;5899;51.282;6.094;2024-02-26T05:02:37;5.13;;;3.10;;
11685;SDS011;5899;51.282;6.094;2024-02-26T05:05:37;6.28;;;3.30;;
11685;SDS011;5899;51.282;6.094;2024-02-26T05:11:20;3.80;;;3.22;;
11685;SDS011;5899;51.282;6.094;2024-02-26T05:17:05;5.27;;;3.50;;
11685;SDS011;5899;51.282;6.094;2024-02-26T05:20:34;4.43;;;3.00;;
11685;SDS011;5899;51.282;6.094;2024-02-26T05:23:21;5.13;;;3.00;;
11685;SDS011;5899;51.282;6.094;2024-02-26T05:29:50;3.60;;;3.28;;
11685;SDS011;5899;51.282;6.094;2024-02-26T05:32:44;4.22;;;3.05;;
11685;SDS011;5899;51.282;6.094;2024-02-26T05:35:25;3.30;;;3.00;;
11685;SDS011;5899;51.282;6.094;2024-02-26T05:49:56;3.90;;;3.40;;
11685;SDS011;5899;51.282;6.094;2024-02-26T05:54:35;4.13;;;3.25;;
11685;SDS011;5899;51.282;6.094;2024-02-26T05:55:35;3.67;;;2.95;;
11685;SDS011;5899;51.282;6.094;2024-02-26T05:58:28;3.50;;;3.15;;
11685;SDS011;5899;51.282;6.094;2024-02-26T06:01:30;3.72;;;3.42;;
11685;SDS011;5899;51.282;6.094;2024-02-26T06:13:07;3.88;;;3.30;;
11685;SDS011;5899;51.282;6.094;2024-02-26T06:16:12;4.80;;;3.70;;
11685;SDS011;5899;51.282;6.094;2024-02-26T06:19:00;3.15;;;2.80;;
11685;SDS011;5899;51.282;6.094;2024-02-26T06:24:57;3.60;;;3.08;;
11685;SDS011;5899;51.282;6.094;2024-02-26T06:36:53;4.20;;;3.10;;
11685;SDS011;5899;51.282;6.094;2024-02-26T06:45:58;4.90;;;3.37;;
11685;SDS011;5899;51.282;6.094;2024-02-26T06:48:38;3.95;;;3.63;;
11685;SDS011;5899;51.282;6.094;2024-02-26T06:51:07;4.25;;;3.65;;
11685;SDS011;5899;51.282;6.094;2024-02-26T06:53:42;5.10;;;3.67;;
11685;SDS011;5899;51.282;6.094;2024-02-26T06:56:24;4.37;;;3.97;;
11685;SDS011;5899;51.282;6.094;2024-02-26T06:58:57;3.78;;;3.40;;
11685;SDS011;5899;51.282;6.094;2024-02-26T07:01:27;6.32;;;4.32;;
11685;SDS011;5899;51.282;6.094;2024-02-26T07:03:54;5.50;;;3.80;;
11685;SDS011;5899;51.282;6.094;2024-02-26T07:06:32;4.70;;;3.97;;
11685;SDS011;5899;51.282;6.094;2024-02-26T07:09:10;5.10;;;3.90;;
11685;SDS011;5899;51.282;6.094;2024-02-26T07:11:54;5.35;;;3.42;;
11685;SDS011;5899;51.282;6.094;2024-02-26T07:14:24;3.95;;;3.58;;
11685;SDS011;5899;51.282;6.094;2024-02-26T07:16:54;4.97;;;3.50;;
11685;SDS011;5899;51.282;6.094;2024-02-26T07:19:23;3.90;;;3.50;;
11685;SDS011;5899;51.282;6.094;2024-02-26T07:21:50;4.70;;;3.88;;
11685;SDS011;5899;51.282;6.094;2024-02-26T07:24:24;4.97;;;3.70;;
11685;SDS011;5899;51.282;6.094;2024-02-26T07:27:06;5.28;;;3.75;;
11685;SDS011;5899;51.282;6.094;2024-02-26T07:29:32;4.65;;;3.50;;
11685;SDS011;5899;51.282;6.094;2024-02-26T07:32:06;4.00;;;3.57;;
11685;SDS011;5899;51.282;6.094;2024-02-26T07:34:33;4.83;;;3.40;;
11685;SDS011;5899;51.282;6.094;2024-02-26T07:37:00;4.07;;;3.58;;
11685;SDS011;5899;51.282;6.094;2024-02-26T07:45:10;3.45;;;3.08;;
11685;SDS011;5899;51.282;6.094;2024-02-26T07:47:40;3.95;;;3.42;;
11685;SDS011;5899;51.282;6.094;2024-02-26T07:50:17;3.47;;;3.10;;
11685;SDS011;5899;51.282;6.094;2024-02-26T07:52:48;5.53;;;3.90;;
11685;SDS011;5899;51.282;6.094;2024-02-26T07:55:16;4.68;;;4.00;;
11685;SDS011;5899;51.282;6.094;2024-02-26T07:57:45;3.17;;;2.88;;
11685;SDS011;5899;51.282;6.094;2024-02-26T08:00:21;4.13;;;3.30;;
11685;SDS011;5899;51.282;6.094;2024-02-26T08:02:54;3.47;;;3.17;;
11685;SDS011;5899;51.282;6.094;2024-02-26T08:05:27;3.30;;;2.92;;
11685;SDS011;5899;51.282;6.094;2024-02-26T08:08:02;3.58;;;3.28;;
11685;SDS011;5899;51.282;6.094;2024-02-26T08:10:28;3.92;;;3.45;;
11685;SDS011;5899;51.282;6.094;2024-02-26T08:12:56;3.05;;;2.75;;
11685;SDS011;5899;51.282;6.094;2024-02-26T08:15:34;4.55;;;3.22;;
11685;SDS011;5899;51.282;6.094;2024-02-26T08:18:02;4.35;;;3.40;;
11685;SDS011;5899;51.282;6.094;2024-02-26T08:20:32;4.03;;;3.63;;
11685;SDS011;5899;51.282;6.094;2024-02-26T08:23:03;4.95;;;3.83;;
11685;SDS011;5899;51.282;6.094;2024-02-26T08:25:32;4.30;;;3.90;;
11685;SDS011;5899;51.282;6.094;2024-02-26T08:28:11;4.10;;;3.70;;
11685;SDS011;5899;51.282;6.094;2024-02-26T08:33:24;4.13;;;3.70;;
11685;SDS011;5899;51.282;6.094;2024-02-26T08:35:50;4.07;;;3.67;;
11685;SDS011;5899;51.282;6.094;2024-02-26T08:38:20;5.18;;;3.75;;
11685;SDS011;5899;51.282;6.094;2024-02-26T08:40:56;4.33;;;3.93;;
11685;SDS011;5899;51.282;6.094;2024-02-26T08:43:31;4.35;;;3.67;;
11685;SDS011;5899;51.282;6.094;2024-02-26T08:45:57;4.33;;;3.93;;
11685;SDS011;5899;51.282;6.094;2024-02-26T08:48:27;6.20;;;3.80;;
11685;SDS011;5899;51.282;6.094;2024-02-26T08:51:00;5.00;;;4.40;;
11685;SDS011;5899;51.282;6.094;2024-02-26T08:53:28;4.22;;;3.83;;
11685;SDS011;5899;51.282;6.094;2024-02-26T08:55:58;6.07;;;4.30;;
11685;SDS011;5899;51.282;6.094;2024-02-26T08:58:29;5.75;;;4.47;;
11685;SDS011;5899;51.282;6.094;2024-02-26T09:01:01;5.33;;;4.83;;
11685;SDS011;5899;51.282;6.094;2024-02-26T09:03:47;4.20;;;3.80;;
11685;SDS011;5899;51.282;6.094;2024-02-26T09:06:16;5.03;;;4.15;;
11685;SDS011;5899;51.282;6.094;2024-02-26T09:08:50;4.40;;;4.00;;
11685;SDS011;5899;51.282;6.094;2024-02-26T09:11:19;4.77;;;4.37;;
11685;SDS011;5899;51.282;6.094;2024-02-26T09:13:46;4.47;;;3.47;;
11685;SDS011;5899;51.282;6.094;2024-02-26T09:16:21;4.90;;;4.03;;
11685;SDS011;5899;51.282;6.094;2024-02-26T09:18:53;5.13;;;4.30;;
11685;SDS011;5899;51.282;6.094;2024-02-26T09:26:39;4.07;;;3.78;;
11685;SDS011;5899;51.282;6.094;2024-02-26T09:29:13;6.23;;;4.17;;
11685;SDS011;5899;51.282;6.094;2024-02-26T09:31:39;4.22;;;3.78;;
11685;SDS011;5899;51.282;6.094;2024-02-26T09:34:10;4.40;;;4.00;;
11685;SDS011;5899;51.282;6.094;2024-02-26T09:36:39;4.95;;;4.18;;
11685;SDS011;5899;51.282;6.094;2024-02-26T09:39:07;5.22;;;4.43;;
11685;SDS011;5899;51.282;6.094;2024-02-26T09:41:36;4.10;;;3.80;;
11685;SDS011;5899;51.282;6.094;2024-02-26T09:44:04;5.50;;;4.20;;
11685;SDS011;5899;51.282;6.094;2024-02-26T09:46:35;4.23;;;3.83;;
11685;SDS011;5899;51.282;6.094;2024-02-26T09:49:04;4.53;;;3.83;;
11685;SDS011;5899;51.282;6.094;2024-02-26T09:51:33;4.32;;;3.92;;
11685;SDS011;5899;51.282;6.094;2024-02-26T09:54:12;4.35;;;3.95;;
11685;SDS011;5899;51.282;6.094;2024-02-26T09:56:39;4.70;;;3.42;;
11685;SDS011;5899;51.282;6.094;2024-02-26T09:59:13;4.18;;;3.60;;
11685;SDS011;5899;51.282;6.094;2024-02-26T10:01:50;4.28;;;3.85;;
11685;SDS011;5899;51.282;6.094;2024-02-26T10:10:25;4.88;;;3.70;;
11685;SDS011;5899;51.282;6.094;2024-02-26T10:12:58;4.63;;;4.13;;
11685;SDS011;5899;51.282;6.094;2024-02-26T10:15:36;5.38;;;4.40;;
11685;SDS011;5899;51.282;6.094;2024-02-26T10:18:06;4.32;;;3.92;;
11685;SDS011;5899;51.282;6.094;2024-02-26T10:20:34;4.15;;;3.75;;
11685;SDS011;5899;51.282;6.094;2024-02-26T10:23:18;3.85;;;3.50;;
11685;SDS011;5899;51.282;6.094;2024-02-26T10:31:51;4.80;;;3.95;;
11685;SDS011;5899;51.282;6.094;2024-02-26T10:34:45;4.40;;;3.72;;
11685;SDS011;5899;51.282;6.094;2024-02-26T10:37:27;5.50;;;4.10;;
11685;SDS011;5899;51.282;6.094;2024-02-26T10:40:09;4.30;;;3.95;;
11685;SDS011;5899;51.282;6.094;2024-02-26T10:42:55;4.63;;;4.20;;
11685;SDS011;5899;51.282;6.094;2024-02-26T10:45:55;4.47;;;4.07;;
11685;SDS011;5899;51.282;6.094;2024-02-26T10:48:27;4.90;;;4.03;;
11685;SDS011;5899;51.282;6.094;2024-02-26T10:51:10;5.00;;;4.10;;
11685;SDS011;5899;51.282;6.094;2024-02-26T10:53:44;3.92;;;3.53;;
11685;SDS011;5899;51.282;6.094;2024-02-26T10:56:23;4.22;;;3.83;;
11685;SDS011;5899;51.282;6.094;2024-02-26T10:59:10;4.80;;;3.75;;
11685;SDS011;5899;51.282;6.094;2024-02-26T11:01:41;4.20;;;3.78;;
11685;SDS011;5899;51.282;6.094;2024-02-26T11:04:24;6.45;;;3.70;;
11685;SDS011;5899;51.282;6.094;2024-02-26T11:06:56;3.67;;;3.30;;
11685;SDS011;5899;51.282;6.094;2024-02-26T11:09:23;3.25;;;2.95;;
11685;SDS011;5899;51.282;6.094;2024-02-26T11:11:53;3.33;;;3.03;;
11685;SDS011;5899;51.282;6.094;2024-02-26T11:14:32;3.47;;;3.17;;
11685;SDS011;5899;51.282;6.094;2024-02-26T11:17:04;5.03;;;3.67;;
11685;SDS011;5899;51.282;6.094;2024-02-26T11:19:36;4.45;;;3.50;;
11685;SDS011;5899;51.282;6.094;2024-02-26T11:22:10;4.03;;;3.20;;
11685;SDS011;5899;51.282;6.094;2024-02-26T11:24:39;4.50;;;3.85;;
11685;SDS011;5899;51.282;6.094;2024-02-26T11:27:10;3.90;;;3.55;;
11685;SDS011;5899;51.282;6.094;2024-02-26T11:33:06;4.53;;;3.30;;
11685;SDS011;5899;51.282;6.094;2024-02-26T11:35:44;3.87;;;3.50;;
11685;SDS011;5899;51.282;6.094;2024-02-26T11:38:47;2.80;;;2.53;;
11685;SDS011;5899;51.282;6.094;2024-02-26T11:41:18;3.47;;;3.10;;
11685;SDS011;5899;51.282;6.094;2024-02-26T11:43:49;3.85;;;3.42;;
11685;SDS011;5899;51.282;6.094;2024-02-26T11:46:26;3.43;;;3.00;;
11685;SDS011;5899;51.282;6.094;2024-02-26T11:49:29;4.45;;;3.20;;
11685;SDS011;5899;51.282;6.094;2024-02-26T11:51:54;5.03;;;3.17;;
11685;SDS011;5899;51.282;6.094;2024-02-26T11:54:43;4.40;;;3.45;;
11685;SDS011;5899;51.282;6.094;2024-02-26T12:00:12;3.28;;;2.97;;
11685;SDS011;5899;51.282;6.094;2024-02-26T12:02:51;4.57;;;3.00;;
11685;SDS011;5899;51.282;6.094;2024-02-26T12:05:32;3.10;;;2.90;;
11685;SDS011;5899;51.282;6.094;2024-02-26T12:08:14;4.45;;;3.45;;
11685;SDS011;5899;51.282;6.094;2024-02-26T12:10:43;3.30;;;3.00;;
11685;SDS011;5899;51.282;6.094;2024-02-26T12:13:29;3.63;;;2.95;;
11685;SDS011;5899;51.282;6.094;2024-02-26T12:16:02;4.53;;;3.22;;
11685;SDS011;5899;51.282;6.094;2024-02-26T12:18:35;3.53;;;3.22;;
11685;SDS011;5899;51.282;6.094;2024-02-26T12:21:11;3.97;;;3.58;;
11685;SDS011;5899;51.282;6.094;2024-02-26T12:23:41;4.03;;;3.50;;
11685;SDS011;5899;51.282;6.094;2024-02-26T12:26:08;3.85;;;3.47;;
11685;SDS011;5899;51.282;6.094;2024-02-26T12:28:37;5.00;;;3.80;;
11685;SDS011;5899;51.282;6.094;2024-02-26T12:31:04;4.35;;;3.83;;
11685;SDS011;5899;51.282;6.094;2024-02-26T12:33:35;4.85;;;4.10;;
11685;SDS011;5899;51.282;6.094;2024-02-26T12:36:06;4.53;;;4.13;;
11685;SDS011;5899;51.282;6.094;2024-02-26T12:38:37;6.43;;;4.60;;
11685;SDS011;5899;51.282;6.094;2024-02-26T12:41:09;4.80;;;4.30;;
11685;SDS011;5899;51.282;6.094;2024-02-26T12:43:36;4.03;;;3.63;;
11685;SDS011;5899;51.282;6.094;2024-02-26T12:46:02;5.15;;;4.43;;
11685;SDS011;5899;51.282;6.094;2024-02-26T12:48:34;4.82;;;4.43;;
11685;SDS011;5899;51.282;6.094;2024-02-26T12:51:03;5.57;;;4.75;;
11685;SDS011;5899;51.282;6.094;2024-02-26T12:53:34;6.45;;;4.90;;
11685;SDS011;5899;51.282;6.094;2024-02-26T12:56:04;6.00;;;4.97;;
11685;SDS011;5899;51.282;6.094;2024-02-26T12:58:36;5.50;;;4.93;;
11685;SDS011;5899;51.282;6.094;2024-02-26T13:01:04;6.00;;;5.07;;
11685;SDS011;5899;51.282;6.094;2024-02-26T13:03:34;7.38;;;5.40;;
11685;SDS011;5899;51.282;6.094;2024-02-26T13:06:02;7.13;;;5.30;;
11685;SDS011;5899;51.282;6.094;2024-02-26T13:08:32;7.00;;;5.43;;
11685;SDS011;5899;51.282;6.094;2024-02-26T13:11:11;5.27;;;4.77;;
11685;SDS011;5899;51.282;6.094;2024-02-26T13:13:39;5.63;;;5.05;;
11685;SDS011;5899;51.282;6.094;2024-02-26T13:16:14;5.40;;;4.90;;
11685;SDS011;5899;51.282;6.094;2024-02-26T13:18:51;7.43;;;5.68;;
11685;SDS011;5899;51.282;6.094;2024-02-26T13:21:18;6.00;;;4.77;;
11685;SDS011;5899;51.282;6.094;2024-02-26T13:23:54;5.75;;;5.15;;
11685;SDS011;5899;51.282;6.094;2024-02-26T13:26:23;6.20;;;5.60;;
11685;SDS011;5899;51.282;6.094;2024-02-26T13:29:00;6.10;;;5.50;;
11685;SDS011;5899;51.282;6.094;2024-02-26T13:31:29;5.70;;;5.05;;
11685;SDS011;5899;51.282;6.094;2024-02-26T13:33:56;6.10;;;5.50;;
11685;SDS011;5899;51.282;6.094;2024-02-26T13:36:27;6.20;;;5.60;;
11685;SDS011;5899;51.282;6.094;2024-02-26T13:38:54;8.75;;;5.38;;
11685;SDS011;5899;51.282;6.094;2024-02-26T13:41:20;7.00;;;6.10;;
11685;SDS011;5899;51.282;6.094;2024-02-26T13:43:49;6.35;;;5.75;;
11685;SDS011;5899;51.282;6.094;2024-02-26T13:46:28;5.53;;;5.03;;
11685;SDS011;5899;51.282;6.094;2024-02-26T13:49:08;6.78;;;5.68;;
11685;SDS011;5899;51.282;6.094;2024-02-26T13:51:38;6.63;;;5.45;;
11685;SDS011;5899;51.282;6.094;2024-02-26T13:54:19;6.30;;;5.57;;
11685;SDS011;5899;51.282;6.094;2024-02-26T13:56:53;7.10;;;5.90;;
11685;SDS011;5899;51.282;6.094;2024-02-26T13:59:34;7.57;;;5.70;;
11685;SDS011;5899;51.282;6.094;2024-02-26T14:02:16;5.78;;;5.20;;
11685;SDS011;5899;51.282;6.094;2024-02-26T14:05:13;5.93;;;5.33;;
11685;SDS011;5899;51.282;6.094;2024-02-26T14:07:30;5.88;;;5.18;;
11685;SDS011;5899;51.282;6.094;2024-02-26T14:10:03;6.13;;;5.05;;
11685;SDS011;5899;51.282;6.094;2024-02-26T14:13:00;8.07;;;5.70;;
11685;SDS011;5899;51.282;6.094;2024-02-26T14:15:39;7.40;;;5.80;;
11685;SDS011;5899;51.282;6.094;2024-02-26T14:18:18;6.00;;;5.40;;
11685;SDS011;5899;51.282;6.094;2024-02-26T14:21:07;5.70;;;5.18;;
11685;SDS011;5899;51.282;6.094;2024-02-26T14:25:20;5.20;;;4.70;;
11685;SDS011;5899;51.282;6.094;2024-02-26T14:28:58;7.57;;;4.88;;
11685;SDS011;5899;51.282;6.094;2024-02-26T14:29:55;4.93;;;4.38;;
11685;SDS011;5899;51.282;6.094;2024-02-26T14:38:55;5.90;;;4.87;;
11685;SDS011;5899;51.282;6.094;2024-02-26T14:41:33;5.70;;;4.78;;
11685;SDS011;5899;51.282;6.094;2024-02-26T14:44:06;7.63;;;4.90;;
11685;SDS011;5899;51.282;6.094;2024-02-26T14:46:40;6.55;;;4.40;;
11685;SDS011;5899;51.282;6.094;2024-02-26T14:49:14;6.95;;;4.85;;
11685;SDS011;5899;51.282;6.094;2024-02-26T14:51:49;4.80;;;4.32;;
11685;SDS011;5899;51.282;6.094;2024-02-26T14:54:31;6.10;;;4.40;;
11685;SDS011;5899;51.282;6.094;2024-02-26T14:57:05;5.35;;;4.75;;
11685;SDS011;5899;51.282;6.094;2024-02-26T14:59:33;5.05;;;4.50;;
11685;SDS011;5899;51.282;6.094;2024-02-26T15:02:06;5.05;;;4.55;;
11685;SDS011;5899;51.282;6.094;2024-02-26T15:04:38;5.82;;;4.72;;
11685;SDS011;5899;51.282;6.094;2024-02-26T15:07:06;6.28;;;5.22;;
11685;SDS011;5899;51.282;6.094;2024-02-26T15:09:46;6.25;;;5.43;;
11685;SDS011;5899;51.282;6.094;2024-02-26T15:12:21;5.82;;;5.13;;
11685;SDS011;5899;51.282;6.094;2024-02-26T15:14:50;5.82;;;5.20;;
11685;SDS011;5899;51.282;6.094;2024-02-26T15:17:21;6.10;;;5.32;;
11685;SDS011;5899;51.282;6.094;2024-02-26T15:19:49;8.18;;;5.18;;
11685;SDS011;5899;51.282;6.094;2024-02-26T15:28:37;8.23;;;5.70;;
11685;SDS011;5899;51.282;6.094;2024-02-26T15:31:15;8.32;;;6.07;;
11685;SDS011;5899;51.282;6.094;2024-02-26T15:34:09;8.73;;;6.28;;
11685;SDS011;5899;51.282;6.094;2024-02-26T15:36:38;9.10;;;6.95;;
11685;SDS011;5899;51.282;6.094;2024-02-26T15:39:07;9.82;;;6.63;;
11685;SDS011;5899;51.282;6.094;2024-02-26T15:41:34;10.30;;;7.07;;
11685;SDS011;5899;51.282;6.094;2024-02-26T15:44:17;9.90;;;6.57;;
11685;SDS011;5899;51.282;6.094;2024-02-26T15:46:51;9.73;;;6.80;;
11685;SDS011;5899;51.282;6.094;2024-02-26T15:49:29;9.93;;;6.25;;
11685;SDS011;5899;51.282;6.094;2024-02-26T15:52:23;8.38;;;6.05;;
11685;SDS011;5899;51.282;6.094;2024-02-26T15:55:12;8.23;;;6.40;;
11685;SDS011;5899;51.282;6.094;2024-02-26T16:04:00;7.13;;;5.78;;
11685;SDS011;5899;51.282;6.094;2024-02-26T16:06:31;9.63;;;6.32;;
11685;SDS011;5899;51.282;6.094;2024-02-26T16:11:56;7.03;;;5.95;;
11685;SDS011;5899;51.282;6.094;2024-02-26T16:14:36;7.93;;;6.03;;
11685;SDS011;5899;51.282;6.094;2024-02-26T16:17:07;7.07;;;5.70;;
11685;SDS011;5899;51.282;6.094;2024-02-26T16:19:38;9.43;;;6.15;;
11685;SDS011;5899;51.282;6.094;2024-02-26T16:22:08;8.27;;;5.82;;
11685;SDS011;5899;51.282;6.094;2024-02-26T16:24:56;8.10;;;6.13;;
11685;SDS011;5899;51.282;6.094;2024-02-26T16:27:40;9.55;;;6.18;;
11685;SDS011;5899;51.282;6.094;2024-02-26T16:30:13;7.65;;;6.18;;
11685;SDS011;5899;51.282;6.094;2024-02-26T16:32:45;8.45;;;5.68;;
11685;SDS011;5899;51.282;6.094;2024-02-26T16:35:13;7.03;;;6.03;;
11685;SDS011;5899;51.282;6.094;2024-02-26T16:46:17;8.13;;;6.05;;
11685;SDS011;5899;51.282;6.094;2024-02-26T16:49:05;9.10;;;6.45;;
11685;SDS011;5899;51.282;6.094;2024-02-26T16:51:46;9.85;;;6.53;;
11685;SDS011;5899;51.282;6.094;2024-02-26T16:54:14;7.55;;;6.20;;
11685;SDS011;5899;51.282;6.094;2024-02-26T16:56:44;11.10;;;7.75;;
11685;SDS011;5899;51.282;6.094;2024-02-26T17:02:18;9.93;;;7.53;;
11685;SDS011;5899;51.282;6.094;2024-02-26T17:04:48;10.35;;;7.43;;
11685;SDS011;5899;51.282;6.094;2024-02-26T17:18:44;7.65;;;6.28;;
11685;SDS011;5899;51.282;6.094;2024-02-26T17:23:28;9.17;;;6.60;;
11685;SDS011;5899;51.282;6.094;2024-02-26T17:24:40;8.95;;;6.78;;
11685;SDS011;5899;51.282;6.094;2024-02-26T17:27:19;8.63;;;6.45;;
11685;SDS011;5899;51.282;6.094;2024-02-26T17:30:29;7.30;;;6.13;;
11685;SDS011;5899;51.282;6.094;2024-02-26T17:33:02;7.83;;;6.13;;
11685;SDS011;5899;51.282;6.094;2024-02-26T17:36:01;9.30;;;6.28;;
11685;SDS011;5899;51.282;6.094;2024-02-26T17:39:15;9.23;;;7.13;;
11685;SDS011;5899;51.282;6.094;2024-02-26T17:41:57;8.80;;;6.13;;
11685;SDS011;5899;51.282;6.094;2024-02-26T17:44:47;8.38;;;6.40;;
11685;SDS011;5899;51.282;6.094;2024-02-26T18:19:55;8.75;;;6.68;;
11685;SDS011;5899;51.282;6.094;2024-02-26T18:26:07;7.80;;;6.37;;
11685;SDS011;5899;51.282;6.094;2024-02-26T18:29:04;7.20;;;5.90;;
11685;SDS011;5899;51.282;6.094;2024-02-26T18:43:44;9.32;;;6.70;;
11685;SDS011;5899;51.282;6.094;2024-02-26T18:49:40;9.50;;;6.90;;
11685;SDS011;5899;51.282;6.094;2024-02-26T18:52:46;8.65;;;6.55;;
